Time;durP1;ratioP1;P1;durP2;ratioP2;P2;SDS_P1;SDS_P2;PMS_P1;PMS_P2;Temp;Humidity;BMP_temperature;BMP_pressure;BME280_temperature;BME280_humidity;BME280_pressure;Samples;Min_cycle;Max_cycle;Signal;HPM_P1;HPM_P2
2022/01/29 00:01:04;;;;;;;5.53;4.20;;;;;;;4.26;66.80;97170.03;5010457;28;20223;-83
2022/01/29 00:03:32;;;;;;;5.43;3.80;;;;;;;4.16;66.75;97167.28;5010755;28;20191;-84
2022/01/29 00:05:59;;;;;;;7.07;4.23;;;;;;;4.13;67.09;97158.09;5012629;28;20590;-84
2022/01/29 00:08:26;;;;;;;4.60;4.17;;;;;;;4.00;67.17;97148.78;5011539;28;20199;-83
2022/01/29 00:10:55;;;;;;;4.77;4.27;;;;;;;3.96;67.31;97140.50;5011646;28;20245;-84
2022/01/29 00:13:25;;;;;;;6.57;4.00;;;;;;;3.97;67.60;97142.13;5011766;28;20205;-83
2022/01/29 00:15:53;;;;;;;5.63;3.97;;;;;;;3.91;68.09;97126.41;5004640;28;20222;-83
2022/01/29 00:18:23;;;;;;;4.50;4.03;;;;;;;3.99;67.98;97125.03;5005711;28;20226;-83
2022/01/29 00:20:49;;;;;;;7.13;4.27;;;;;;;3.94;67.66;97118.56;5009940;28;20230;-83
2022/01/29 00:23:15;;;;;;;8.97;4.80;;;;;;;4.00;67.85;97121.56;5000300;28;20200;-83
2022/01/29 00:25:42;;;;;;;8.00;4.37;;;;;;;4.08;67.41;97113.41;4995816;28;20215;-82
2022/01/29 00:28:08;;;;;;;5.40;3.97;;;;;;;4.11;67.22;97114.03;4997242;28;20188;-83
2022/01/29 00:30:39;;;;;;;6.97;4.37;;;;;;;4.16;67.46;97098.44;4997573;28;20230;-83
2022/01/29 00:33:06;;;;;;;8.77;4.40;;;;;;;4.16;67.20;97104.34;5026551;23;20639;-84
2022/01/29 00:35:32;;;;;;;6.40;4.47;;;;;;;4.14;67.15;97095.19;5043541;28;20201;-85
2022/01/29 00:37:59;;;;;;;6.97;4.63;;;;;;;4.08;67.56;97098.94;5048520;28;20213;-84
2022/01/29 00:40:26;;;;;;;5.60;4.33;;;;;;;4.06;67.52;97087.19;5045919;28;20221;-84
2022/01/29 00:42:53;;;;;;;5.63;4.00;;;;;;;4.08;67.20;97090.47;5048465;28;20618;-81
2022/01/29 00:45:19;;;;;;;4.33;3.90;;;;;;;4.09;67.42;97084.44;5047835;28;20217;-85
2022/01/29 00:47:47;;;;;;;6.03;4.47;;;;;;;4.07;67.32;97074.34;5047413;28;20579;-84
2022/01/29 00:50:14;;;;;;;6.23;4.47;;;;;;;4.00;67.65;97077.41;5046080;28;20225;-84
2022/01/29 00:52:40;;;;;;;6.13;4.57;;;;;;;4.04;67.52;97077.09;5048127;28;20209;-84
2022/01/29 00:55:09;;;;;;;7.30;4.20;;;;;;;3.99;67.69;97075.78;5048116;28;20204;-84
2022/01/29 00:57:38;;;;;;;6.60;4.50;;;;;;;4.00;67.83;97073.13;5046261;28;21920;-85
2022/01/29 01:00:07;;;;;;;5.97;4.27;;;;;;;4.04;67.80;97078.84;5048248;28;20223;-84
2022/01/29 01:02:33;;;;;;;5.17;4.67;;;;;;;4.11;67.38;97078.34;5045405;28;20224;-81
2022/01/29 01:05:01;;;;;;;6.30;4.27;;;;;;;4.19;67.08;97065.13;5036415;28;20202;-84
2022/01/29 01:07:28;;;;;;;5.87;4.57;;;;;;;4.16;66.88;97067.84;5034103;28;20193;-84
2022/01/29 01:09:54;;;;;;;7.23;4.27;;;;;;;4.12;67.36;97068.97;5027323;28;20194;-81
2022/01/29 01:12:21;;;;;;;6.00;4.00;;;;;;;4.15;66.91;97061.94;5032693;28;20724;-85
2022/01/29 01:14:47;;;;;;;6.03;3.83;;;;;;;4.15;66.85;97063.66;5034211;28;20225;-83
2022/01/29 01:17:14;;;;;;;5.23;4.40;;;;;;;4.13;66.82;97057.84;5033627;28;20198;-84
2022/01/29 01:19:40;;;;;;;5.60;4.60;;;;;;;4.07;66.98;97043.78;5033934;28;20609;-85
2022/01/29 01:22:08;;;;;;;6.77;4.60;;;;;;;4.07;66.94;97043.78;5033256;28;20218;-84
2022/01/29 01:24:34;;;;;;;7.63;4.67;;;;;;;4.13;66.81;97040.84;5034494;28;20709;-84
2022/01/29 01:27:01;;;;;;;4.87;4.37;;;;;;;4.16;67.21;97027.06;5033104;28;20209;-84
2022/01/29 01:29:27;;;;;;;6.00;4.50;;;;;;;4.10;67.16;97040.22;5046482;28;20190;-84
2022/01/29 01:31:54;;;;;;;4.50;4.10;;;;;;;4.17;66.97;97033.81;5044979;28;20308;-82
2022/01/29 01:34:23;;;;;;;5.53;4.33;;;;;;;4.10;67.24;97019.81;5032873;28;20697;-85
2022/01/29 01:36:54;;;;;;;4.97;4.30;;;;;;;4.16;67.24;97007.50;5046024;28;20194;-84
2022/01/29 01:39:27;;;;;;;6.03;4.90;;;;;;;4.21;66.83;97011.47;5046836;28;20855;-84
2022/01/29 01:41:58;;;;;;;5.87;4.93;;;;;;;4.21;66.74;97011.47;5046077;28;20237;-84
2022/01/29 01:44:25;;;;;;;5.60;4.50;;;;;;;4.26;66.71;96999.22;5046660;28;20217;-84
2022/01/29 01:46:51;;;;;;;5.37;4.33;;;;;;;4.30;66.83;96998.09;5046945;28;20212;-84
2022/01/29 01:49:19;;;;;;;5.50;4.77;;;;;;;4.36;66.54;97000.25;5046989;28;20216;-84
2022/01/29 01:51:45;;;;;;;5.97;4.27;;;;;;;4.36;66.44;96998.53;5033047;28;20223;-85
2022/01/29 01:54:12;;;;;;;4.87;4.17;;;;;;;4.30;66.43;96996.38;5033717;28;20213;-85
2022/01/29 01:56:40;;;;;;;4.30;3.80;;;;;;;4.30;66.42;96998.91;5034472;28;20197;-85
2022/01/29 01:59:06;;;;;;;6.53;4.80;;;;;;;4.31;66.62;96989.53;5018248;28;20218;-84
2022/01/29 02:01:32;;;;;;;6.70;4.70;;;;;;;4.32;66.43;96986.06;5014022;28;20217;-84
2022/01/29 02:03:59;;;;;;;4.53;4.00;;;;;;;4.28;66.70;96982.09;5012902;28;20222;-84
2022/01/29 02:06:26;;;;;;;5.20;4.30;;;;;;;4.29;66.66;96983.72;5020301;28;20221;-84
2022/01/29 02:08:58;;;;;;;6.27;4.50;;;;;;;4.34;66.57;96979.13;5026369;28;20278;-84
2022/01/29 02:11:25;;;;;;;6.60;4.90;;;;;;;4.30;66.51;96977.72;5026824;28;20280;-84
2022/01/29 02:13:54;;;;;;;6.93;4.60;;;;;;;4.33;66.38;96975.78;5029023;28;20217;-84
2022/01/29 02:16:20;;;;;;;6.27;4.63;;;;;;;4.26;66.67;96958.44;5032109;28;20241;-86
2022/01/29 02:18:47;;;;;;;4.33;3.70;;;;;;;4.24;66.41;96950.88;5032185;28;20696;-84
2022/01/29 02:21:14;;;;;;;4.67;4.17;;;;;;;4.24;66.52;96948.34;5032804;28;20202;-84
2022/01/29 02:23:42;;;;;;;5.07;4.50;;;;;;;4.28;66.52;96949.75;5034682;28;20221;-83
2022/01/29 02:26:08;;;;;;;5.63;3.90;;;;;;;4.27;66.69;96945.59;5032598;28;20229;-85
2022/01/29 02:28:35;;;;;;;7.07;4.47;;;;;;;4.31;66.48;96933.44;5034823;28;20201;-84
2022/01/29 02:31:03;;;;;;;5.80;4.43;;;;;;;4.23;66.20;96944.19;5032900;28;20309;-84
2022/01/29 02:33:33;;;;;;;5.37;4.00;;;;;;;4.25;66.29;96939.78;5033133;28;20233;-85
2022/01/29 02:35:59;;;;;;;5.97;4.47;;;;;;;4.26;66.02;96927.84;5025825;28;20233;-84
2022/01/29 02:38:27;;;;;;;5.47;4.37;;;;;;;4.24;65.94;96930.50;5031454;28;20707;-84
2022/01/29 02:41:00;;;;;;;5.47;4.60;;;;;;;4.25;66.28;96937.22;5032723;28;20202;-84
2022/01/29 02:43:31;;;;;;;5.57;3.93;;;;;;;4.20;65.99;96928.28;5039992;28;20297;-84
2022/01/29 02:46:04;;;;;;;5.13;4.30;;;;;;;4.19;66.19;96926.66;5045105;28;20228;-84
2022/01/29 02:48:31;;;;;;;6.90;4.27;;;;;;;4.22;66.20;96923.91;5046583;28;20255;-85
2022/01/29 02:50:57;;;;;;;5.97;4.30;;;;;;;4.25;66.03;96918.56;5049331;28;20205;-85
2022/01/29 02:53:24;;;;;;;5.20;4.13;;;;;;;4.18;65.83;96933.47;5045009;28;20209;-85
2022/01/29 02:55:50;;;;;;;5.40;4.27;;;;;;;4.19;66.32;96929.19;5035822;28;20232;-84
2022/01/29 02:58:18;;;;;;;5.47;4.23;;;;;;;4.19;66.16;96931.75;5035400;28;20231;-85
2022/01/29 03:00:44;;;;;;;6.30;4.47;;;;;;;4.19;66.37;96934.28;5037367;28;20198;-85
2022/01/29 03:03:11;;;;;;;5.57;4.40;;;;;;;4.16;66.52;96938.69;5039504;28;20222;-86
2022/01/29 03:05:37;;;;;;;4.83;4.00;;;;;;;4.19;66.73;96934.28;5039972;28;20230;-86
2022/01/29 03:08:04;;;;;;;5.33;4.30;;;;;;;4.23;66.33;96928.88;5039280;28;20194;-85
2022/01/29 03:10:31;;;;;;;7.00;4.63;;;;;;;4.25;66.09;96927.03;5039268;28;20813;-85
2022/01/29 03:12:57;;;;;;;4.73;4.23;;;;;;;4.25;66.32;96904.09;5039196;28;20226;-85
2022/01/29 03:15:25;;;;;;;4.73;4.10;;;;;;;4.26;66.10;96903.16;5032176;28;20237;-86
2022/01/29 03:17:51;;;;;;;5.23;4.20;;;;;;;4.23;66.24;96900.84;5035251;28;20194;-84
2022/01/29 03:20:18;;;;;;;5.97;4.53;;;;;;;4.22;65.88;96896.66;5037414;28;20214;-85
2022/01/29 03:22:45;;;;;;;5.30;4.20;;;;;;;4.22;66.14;96894.13;5042734;28;20202;-85
2022/01/29 03:25:11;;;;;;;7.67;4.43;;;;;;;4.18;65.83;96890.16;5052573;28;20220;-86
2022/01/29 03:27:38;;;;;;;6.33;4.30;;;;;;;4.19;66.08;96894.31;5051202;28;20664;-85
2022/01/29 03:30:05;;;;;;;8.60;4.53;;;;;;;4.19;65.94;96906.25;5051965;28;20200;-85
2022/01/29 03:32:33;;;;;;;5.17;4.07;;;;;;;4.20;66.06;96900.25;5051652;28;20193;-86
2022/01/29 03:34:59;;;;;;;5.50;4.00;;;;;;;4.16;65.71;96885.16;5041622;28;20206;-85
2022/01/29 03:37:26;;;;;;;5.37;4.27;;;;;;;4.11;66.01;96878.72;5036791;28;20226;-85
2022/01/29 03:39:57;;;;;;;5.67;4.40;;;;;;;4.05;66.21;96891.88;5038199;28;20224;-86
2022/01/29 03:42:24;;;;;;;5.30;4.10;;;;;;;4.06;66.26;96888.41;5037859;28;20554;-85
2022/01/29 03:44:50;;;;;;;8.03;4.23;;;;;;;4.06;66.45;96879.03;5039292;28;20308;-85
2022/01/29 03:47:17;;;;;;;8.83;4.33;;;;;;;4.09;65.99;96875.47;5037633;28;20194;-85
2022/01/29 03:49:45;;;;;;;6.17;4.30;;;;;;;4.06;66.32;96873.94;5035627;28;20230;-85
2022/01/29 03:52:11;;;;;;;5.50;4.37;;;;;;;4.05;66.07;96871.50;5037002;28;20205;-85
2022/01/29 03:54:37;;;;;;;6.60;4.00;;;;;;;4.05;66.55;96867.22;5038221;28;20214;-85
2022/01/29 03:57:04;;;;;;;6.63;4.13;;;;;;;4.04;66.52;96867.34;5051764;28;20209;-84
2022/01/29 03:59:30;;;;;;;4.93;3.47;;;;;;;4.00;66.38;96869.28;5049796;28;20225;-85
2022/01/29 04:01:57;;;;;;;4.30;3.87;;;;;;;4.01;66.51;96867.56;5050772;28;20199;-85
2022/01/29 04:04:23;;;;;;;6.13;4.07;;;;;;;4.05;66.34;96874.84;5051756;28;20224;-85
2022/01/29 04:06:51;;;;;;;6.57;3.97;;;;;;;4.08;66.28;96866.19;5049895;28;20198;-86
2022/01/29 04:09:19;;;;;;;5.23;4.07;;;;;;;4.04;66.31;96857.94;5050460;28;20230;-85
2022/01/29 04:11:45;;;;;;;8.10;3.90;;;;;;;4.03;66.47;96852.97;5049908;28;20201;-85
2022/01/29 04:14:16;;;;;;;5.00;3.90;;;;;;;3.97;66.70;96850.84;5050358;28;20736;-85
2022/01/29 04:16:43;;;;;;;6.50;4.70;;;;;;;4.00;66.46;96845.53;5038287;28;20260;-85
2022/01/29 04:19:09;;;;;;;4.80;3.90;;;;;;;4.04;66.49;96842.66;5009690;28;20222;-85
2022/01/29 04:21:36;;;;;;;6.03;3.97;;;;;;;4.04;66.35;96841.84;5038610;28;20189;-84
2022/01/29 04:24:04;;;;;;;4.77;4.00;;;;;;;3.96;66.93;96842.38;5050580;28;20217;-85
2022/01/29 04:26:34;;;;;;;5.43;4.20;;;;;;;3.96;67.03;96832.19;5051172;28;20193;-85
2022/01/29 04:29:02;;;;;;;6.63;4.33;;;;;;;3.98;66.59;96835.44;5048400;28;20303;-85
2022/01/29 04:31:36;;;;;;;4.63;4.10;;;;;;;3.97;66.61;96831.25;5051168;28;20204;-85
2022/01/29 04:34:03;;;;;;;6.93;4.17;;;;;;;3.95;66.77;96833.09;5050234;28;20260;-84
2022/01/29 04:36:29;;;;;;;6.70;3.90;;;;;;;3.97;66.45;96826.16;5050653;28;20194;-85
2022/01/29 04:38:56;;;;;;;6.47;3.97;;;;;;;3.99;66.65;96828.63;5047939;28;20233;-85
2022/01/29 04:41:24;;;;;;;6.47;4.07;;;;;;;3.94;66.51;96833.19;5051082;28;20200;-84
2022/01/29 04:43:50;;;;;;;5.10;4.30;;;;;;;3.95;66.23;96824.63;5049030;28;20225;-85
2022/01/29 04:46:17;;;;;;;7.83;4.20;;;;;;;3.95;66.42;96832.28;5050273;28;20193;-85
2022/01/29 04:48:43;;;;;;;4.73;3.97;;;;;;;4.01;66.33;96836.97;5045287;28;20642;-85
2022/01/29 04:51:09;;;;;;;4.33;3.80;;;;;;;4.03;66.66;96847.88;5047088;28;20193;-85
2022/01/29 04:53:36;;;;;;;6.07;4.00;;;;;;;4.05;66.63;96836.63;5049319;28;20213;-85
2022/01/29 04:56:03;;;;;;;4.53;4.10;;;;;;;4.02;66.52;96828.41;5050128;28;20220;-85
2022/01/29 04:58:30;;;;;;;5.70;3.90;;;;;;;3.94;66.35;96820.47;5049037;28;20193;-84
2022/01/29 05:00:57;;;;;;;5.27;4.27;;;;;;;3.93;66.50;96831.56;5049032;28;20202;-85
2022/01/29 05:03:23;;;;;;;5.47;4.00;;;;;;;3.87;66.80;96834.53;5050193;28;20224;-85
2022/01/29 05:05:50;;;;;;;7.00;4.27;;;;;;;3.87;66.85;96832.78;5048893;28;20206;-85
2022/01/29 05:08:17;;;;;;;5.30;4.10;;;;;;;3.88;67.40;96836.16;5049495;28;20806;-85
2022/01/29 05:10:44;;;;;;;4.47;3.97;;;;;;;3.88;67.32;96831.88;5048033;28;20279;-85
2022/01/29 05:13:13;;;;;;;5.90;3.60;;;;;;;3.84;67.19;96832.22;5051049;28;20218;-85
2022/01/29 05:15:45;;;;;;;5.87;4.43;;;;;;;3.87;67.35;96827.69;5049466;28;20197;-86
2022/01/29 05:29:09;;;;;;;8.43;6.57;;;;;;;3.91;67.53;96816.38;5023683;28;20229;-84
2022/01/29 05:31:37;;;;;;;11.33;7.80;;;;;;;3.93;67.37;96819.66;5029397;28;20202;-85
2022/01/29 05:34:04;;;;;;;11.43;7.93;;;;;;;3.98;67.29;96814.25;5028666;28;20234;-85
2022/01/29 05:36:30;;;;;;;7.77;5.40;;;;;;;3.99;67.24;96813.31;5029614;28;20692;-85
2022/01/29 05:38:57;;;;;;;6.40;4.50;;;;;;;4.01;67.17;96808.94;5001489;28;20227;-85
2022/01/29 05:41:23;;;;;;;6.27;4.70;;;;;;;4.00;66.95;96804.75;5029648;28;20607;-85
2022/01/29 05:43:50;;;;;;;4.70;4.00;;;;;;;3.99;66.97;96803.13;5029044;28;20320;-84
2022/01/29 05:46:17;;;;;;;5.17;4.40;;;;;;;3.96;67.31;96804.16;5049580;28;20201;-84
2022/01/29 05:48:45;;;;;;;5.47;4.50;;;;;;;3.89;67.75;96802.94;5038555;28;20657;-84
2022/01/29 05:51:12;;;;;;;4.90;4.03;;;;;;;3.79;67.58;96797.69;5043868;28;20202;-85
2022/01/29 05:53:39;;;;;;;4.83;4.30;;;;;;;3.77;68.14;96804.59;5047789;28;20232;-85
2022/01/29 05:56:06;;;;;;;6.53;4.07;;;;;;;3.71;68.28;96797.38;5048670;28;20866;-85
2022/01/29 05:58:33;;;;;;;5.47;4.17;;;;;;;3.77;67.88;96791.06;5038961;28;20219;-86
2022/01/29 06:01:00;;;;;;;6.10;4.10;;;;;;;3.66;67.93;96790.94;5035179;28;20214;-85
2022/01/29 06:03:27;;;;;;;5.33;4.30;;;;;;;3.68;67.76;96804.41;5034572;28;20222;-85
2022/01/29 06:05:54;;;;;;;6.73;4.37;;;;;;;3.73;68.14;96805.72;5035781;28;20212;-86
2022/01/29 06:08:21;;;;;;;6.67;4.47;;;;;;;3.76;67.56;96799.59;5034906;28;20210;-85
2022/01/29 06:10:50;;;;;;;5.03;4.20;;;;;;;3.83;67.75;96795.72;5035722;28;20720;-85
2022/01/29 06:13:17;;;;;;;4.30;3.90;;;;;;;3.84;67.57;96797.38;5034531;28;20214;-85
2022/01/29 06:15:46;;;;;;;7.57;4.43;;;;;;;3.90;67.06;96796.94;5035553;28;20194;-84
2022/01/29 06:18:16;;;;;;;5.33;4.00;;;;;;;3.96;66.72;96798.25;5026685;28;20224;-85
2022/01/29 06:20:43;;;;;;;4.50;4.10;;;;;;;3.96;67.07;96804.16;5034687;28;20230;-85
2022/01/29 06:23:12;;;;;;;6.97;4.43;;;;;;;3.94;66.95;96808.53;5046920;28;20217;-85
2022/01/29 06:25:39;;;;;;;5.93;4.10;;;;;;;3.96;66.51;96808.44;5040983;28;20205;-84
2022/01/29 06:28:06;;;;;;;4.70;3.93;;;;;;;4.01;66.55;96802.09;5035592;28;20210;-85
2022/01/29 06:30:32;;;;;;;5.70;4.10;;;;;;;4.04;66.95;96801.09;5036303;28;20238;-84
2022/01/29 06:33:07;;;;;;;5.37;4.47;;;;;;;4.08;66.51;96798.19;5049539;28;20708;-85
2022/01/29 06:35:33;;;;;;;4.87;3.60;;;;;;;4.09;66.14;96793.91;5028186;23;20234;-81
2022/01/29 06:38:00;;;;;;;5.43;3.90;;;;;;;4.10;66.03;96796.34;4999897;28;20781;-81
2022/01/29 06:40:28;;;;;;;4.27;3.83;;;;;;;4.01;65.99;96801.28;4997776;28;20227;-81
2022/01/29 06:42:56;;;;;;;4.97;3.87;;;;;;;4.07;65.97;96786.38;5000409;28;20204;-81
2022/01/29 06:45:22;;;;;;;5.27;4.10;;;;;;;4.04;65.50;96781.50;4993543;28;20624;-81
2022/01/29 06:47:49;;;;;;;4.73;3.57;;;;;;;4.10;65.47;96773.44;4998600;28;20199;-81
2022/01/29 06:50:15;;;;;;;5.37;3.57;;;;;;;4.16;65.23;96783.19;4972345;28;20603;-81
2022/01/29 06:52:42;;;;;;;5.27;3.53;;;;;;;4.25;64.91;96788.56;4998341;28;20200;-81
2022/01/29 06:55:08;;;;;;;4.77;3.93;;;;;;;4.28;64.99;96790.91;4997835;28;20220;-81
2022/01/29 06:57:36;;;;;;;5.13;3.60;;;;;;;4.30;64.60;96791.59;4997916;28;20199;-81
2022/01/29 07:00:07;;;;;;;6.10;4.00;;;;;;;4.31;64.39;96791.50;4997211;28;20222;-81
2022/01/29 07:02:33;;;;;;;3.80;3.40;;;;;;;4.32;63.92;96785.47;4997099;28;20281;-81
2022/01/29 07:05:00;;;;;;;3.70;3.30;;;;;;;4.32;63.70;96770.19;4996998;28;20219;-81
2022/01/29 07:07:26;;;;;;;3.60;3.10;;;;;;;4.36;63.49;96771.59;4996680;28;20203;-81
2022/01/29 07:09:53;;;;;;;3.40;3.00;;;;;;;4.35;62.80;96769.97;4996769;28;20207;-81
2022/01/29 07:12:19;;;;;;;4.80;3.13;;;;;;;4.29;62.35;96764.47;4996446;28;20227;-81
2022/01/29 07:14:49;;;;;;;4.97;2.97;;;;;;;4.31;62.54;96750.72;4996805;28;20220;-82
2022/01/29 07:17:18;;;;;;;3.33;2.90;;;;;;;4.32;62.31;96749.78;4996837;28;20207;-81
2022/01/29 07:19:45;;;;;;;3.70;2.63;;;;;;;4.30;62.26;96738.06;4994567;28;20227;-82
2022/01/29 07:22:12;;;;;;;5.43;3.47;;;;;;;4.85;84.74;96742.53;4993666;28;20230;-81
2022/01/29 07:24:40;;;;;;;8.60;3.53;;;;;;;5.63;80.97;96740.03;4993849;28;20225;-81
2022/01/29 07:27:07;;;;;;;3.63;3.03;;;;;;;6.17;71.94;96752.06;4994494;28;20214;-81
2022/01/29 07:29:34;;;;;;;4.27;2.73;;;;;;;6.35;65.07;96742.94;4995246;28;20192;-82
2022/01/29 07:32:03;;;;;;;4.23;2.83;;;;;;;6.66;71.14;96746.41;4994159;28;20206;-82
2022/01/29 07:34:29;;;;;;;4.23;2.93;;;;;;;6.97;70.83;96739.63;4994486;28;20238;-82
2022/01/29 07:36:57;;;;;;;8.43;3.10;;;;;;;7.17;67.19;96743.91;4994923;28;20196;-83
2022/01/29 07:39:27;;;;;;;5.93;3.23;;;;;;;7.32;63.84;96749.50;4993954;28;20195;-83
2022/01/29 07:41:54;;;;;;;2.60;2.20;;;;;;;7.26;57.01;96744.91;4993932;28;20206;-81
2022/01/29 07:44:21;;;;;;;3.27;2.50;;;;;;;6.75;55.84;96750.78;4998215;28;20227;-82
2022/01/29 07:46:47;;;;;;;2.77;2.47;;;;;;;6.33;56.56;96759.34;4997846;28;20200;-81
2022/01/29 07:49:15;;;;;;;3.33;2.60;;;;;;;6.12;57.19;96767.78;4997637;28;20206;-82
2022/01/29 07:51:42;;;;;;;2.93;2.60;;;;;;;5.96;57.00;96756.31;4998986;28;20203;-82
2022/01/29 07:54:30;;;;;;;3.23;2.63;;;;;;;5.79;59.18;96758.38;4989305;23;20246;-81
2022/01/29 07:56:57;;;;;;;4.03;2.40;;;;;;;5.65;59.44;96760.38;5016833;28;20222;-81
2022/01/29 07:59:23;;;;;;;4.33;2.97;;;;;;;5.63;58.92;96757.91;5013789;28;20203;-82
2022/01/29 08:01:50;;;;;;;2.83;2.57;;;;;;;5.52;57.83;96763.88;5013108;28;20210;-81
2022/01/29 08:04:19;;;;;;;6.73;5.10;;;;;;;5.55;58.39;96766.19;5004587;28;20223;-81
2022/01/29 08:06:46;;;;;;;11.27;8.73;;;;;;;5.49;58.09;96764.09;5005650;28;20203;-81
2022/01/29 08:09:12;;;;;;;4.73;3.60;;;;;;;5.47;58.32;96763.38;4998841;28;20215;-81
2022/01/29 08:11:39;;;;;;;3.37;3.00;;;;;;;5.41;57.89;96760.47;4998181;28;20195;-83
2022/01/29 08:14:05;;;;;;;3.80;3.20;;;;;;;5.36;57.59;96760.84;5005617;28;20237;-83
2022/01/29 08:16:32;;;;;;;6.43;3.13;;;;;;;5.34;58.14;96754.22;5003141;28;20200;-83
2022/01/29 08:18:58;;;;;;;3.17;2.87;;;;;;;5.33;58.33;96755.97;4995618;28;20210;-83
2022/01/29 08:21:26;;;;;;;3.67;3.33;;;;;;;5.27;57.43;96756.41;5003789;28;20212;-84
2022/01/29 08:23:52;;;;;;;3.67;3.33;;;;;;;5.18;57.83;96757.94;4994049;28;20227;-83
2022/01/29 08:26:19;;;;;;;31.73;22.03;;;;;;;5.21;58.27;96750.00;4998660;28;20203;-84
2022/01/29 08:28:45;;;;;;;16.40;12.60;;;;;;;5.25;58.41;96749.78;5001354;28;20690;-84
2022/01/29 08:31:12;;;;;;;3.57;3.27;;;;;;;5.22;58.04;96740.63;5002172;28;20211;-83
2022/01/29 08:33:38;;;;;;;5.00;2.93;;;;;;;5.29;58.43;96735.88;5004966;28;20241;-84
2022/01/29 08:36:05;;;;;;;4.00;3.07;;;;;;;5.23;57.55;96729.47;5000850;28;20222;-83
2022/01/29 08:38:36;;;;;;;3.93;2.63;;;;;;;5.24;57.10;96725.19;5004794;28;20222;-83
2022/01/29 08:41:03;;;;;;;4.57;2.53;;;;;;;5.29;57.31;96718.00;5001787;28;20226;-83
2022/01/29 08:43:29;;;;;;;3.00;2.57;;;;;;;5.28;57.24;96724.03;4999650;28;20306;-83
2022/01/29 08:45:56;;;;;;;3.47;2.83;;;;;;;5.33;57.72;96732.97;5010039;28;20215;-83
2022/01/29 08:48:23;;;;;;;5.07;2.67;;;;;;;5.32;57.15;96727.97;4996607;28;20202;-83
2022/01/29 08:50:50;;;;;;;2.73;2.43;;;;;;;5.32;57.20;96722.88;5007759;28;20199;-83
2022/01/29 08:53:18;;;;;;;2.70;2.43;;;;;;;5.26;56.41;96726.69;5017679;28;20227;-83
2022/01/29 08:55:46;;;;;;;2.90;2.60;;;;;;;5.39;57.22;96724.03;5009537;28;20251;-83
2022/01/29 08:58:13;;;;;;;5.17;4.63;;;;;;;5.43;56.38;96722.88;5009056;28;20196;-84
2022/01/29 09:00:42;;;;;;;4.43;3.57;;;;;;;5.47;55.82;96722.53;5002005;28;20258;-83
2022/01/29 09:03:09;;;;;;;4.50;3.10;;;;;;;5.58;56.91;96726.00;5001003;28;20226;-84
2022/01/29 09:05:35;;;;;;;2.73;2.20;;;;;;;5.60;56.00;96730.06;5009871;28;20221;-83
2022/01/29 09:08:02;;;;;;;5.03;2.47;;;;;;;5.63;55.75;96714.50;5010455;28;20229;-83
2022/01/29 09:10:30;;;;;;;3.97;2.50;;;;;;;5.66;55.73;96723.66;5009855;28;20201;-82
2022/01/29 09:12:58;;;;;;;2.67;2.03;;;;;;;5.66;55.48;96713.44;5008588;28;20223;-84
2022/01/29 09:15:25;;;;;;;2.40;2.20;;;;;;;5.61;54.07;96720.66;5004938;28;20710;-84
2022/01/29 09:17:51;;;;;;;5.00;2.33;;;;;;;5.60;54.41;96727.50;5010281;28;20294;-84
2022/01/29 09:20:18;;;;;;;4.17;2.20;;;;;;;5.65;54.82;96711.81;5005857;28;20218;-84
2022/01/29 09:22:44;;;;;;;6.00;2.50;;;;;;;5.64;54.99;96705.09;4994445;28;20227;-84
2022/01/29 09:25:10;;;;;;;6.40;2.50;;;;;;;5.67;55.06;96697.19;4999384;28;20224;-84
2022/01/29 09:27:37;;;;;;;2.87;2.10;;;;;;;5.68;54.72;96702.19;5006917;28;20203;-84
2022/01/29 09:30:07;;;;;;;3.77;2.30;;;;;;;5.67;54.26;96704.84;5005909;28;20210;-83
2022/01/29 09:32:34;;;;;;;6.60;2.70;;;;;;;5.69;54.19;96685.09;4999621;28;20231;-84
2022/01/29 09:35:00;;;;;;;3.37;2.20;;;;;;;5.69;54.23;96701.25;4997951;28;20307;-84
2022/01/29 09:37:27;;;;;;;2.67;2.17;;;;;;;5.67;54.32;96700.56;5001323;28;20209;-84
2022/01/29 09:39:54;;;;;;;3.57;1.93;;;;;;;5.62;54.07;96697.53;5004393;28;20202;-84
2022/01/29 09:42:20;;;;;;;2.47;1.97;;;;;;;5.61;53.41;96690.00;4996169;28;20249;-84
2022/01/29 09:44:51;;;;;;;5.03;2.07;;;;;;;5.62;53.38;96694.97;4997917;28;20230;-84
2022/01/29 09:47:21;;;;;;;4.63;2.47;;;;;;;5.65;54.10;96689.63;5007833;28;20202;-83
2022/01/29 09:49:48;;;;;;;10.47;2.53;;;;;;;5.69;54.02;96680.81;5005447;28;20222;-83
2022/01/29 09:52:16;;;;;;;3.77;2.10;;;;;;;5.70;52.66;96684.19;4998604;28;20230;-83
2022/01/29 09:54:48;;;;;;;4.33;2.00;;;;;;;5.78;52.53;96699.72;4996526;28;20312;-83
2022/01/29 09:57:17;;;;;;;4.43;1.70;;;;;;;5.79;51.94;96696.22;4997570;28;20203;-83
2022/01/29 09:59:43;;;;;;;5.57;1.80;;;;;;;5.78;52.11;96692.84;4996156;28;20203;-83
2022/01/29 10:02:16;;;;;;;5.40;1.83;;;;;;;5.80;51.56;96700.41;4990058;28;20234;-83
2022/01/29 10:04:49;;;;;;;3.03;1.60;;;;;;;5.86;51.48;96703.31;5005698;28;20757;-83
2022/01/29 10:07:17;;;;;;;7.10;1.40;;;;;;;5.88;50.30;96708.31;5009901;28;20199;-84
2022/01/29 10:09:45;;;;;;;1.40;1.30;;;;;;;5.87;49.76;96693.91;5004168;28;20198;-84
2022/01/29 10:12:23;;;;;;;2.77;1.20;;;;;;;5.89;49.60;96699.72;5007657;28;20241;-84
2022/01/29 10:14:51;;;;;;;2.53;1.23;;;;;;;5.96;49.03;96700.06;5003525;28;20227;-83
2022/01/29 10:17:48;;;;;;;2.67;1.27;;;;;;;5.96;48.16;96698.34;5010723;28;20208;-83
2022/01/29 10:20:21;;;;;;;1.17;0.93;;;;;;;5.95;47.51;96701.81;5000165;28;20210;-83
2022/01/29 10:22:52;;;;;;;2.43;1.00;;;;;;;5.98;47.36;96701.56;5010882;28;20203;-84
2022/01/29 10:25:23;;;;;;;2.30;1.07;;;;;;;6.04;47.22;96711.31;4999564;28;20226;-84
2022/01/29 10:28:13;;;;;;;3.47;1.50;;;;;;;6.02;46.56;96707.25;5008051;28;20211;-84
2022/01/29 10:30:56;;;;;;;1.30;1.13;;;;;;;6.00;45.91;96704.00;4997894;28;20203;-84
2022/01/29 10:33:27;;;;;;;1.20;1.10;;;;;;;6.07;46.55;96692.38;5001931;28;20198;-84
2022/01/29 10:35:56;;;;;;;2.07;1.00;;;;;;;6.14;46.59;96693.50;5002676;28;20226;-83
2022/01/29 10:38:24;;;;;;;3.60;1.50;;;;;;;6.14;46.29;96696.06;5004703;28;20223;-84
2022/01/29 10:41:14;;;;;;;2.60;1.30;;;;;;;6.18;45.86;96689.75;5004673;28;20226;-84
2022/01/29 10:44:13;;;;;;;2.93;1.20;;;;;;;6.24;45.74;96690.09;5006061;28;20202;-85
2022/01/29 10:46:45;;;;;;;0.80;0.80;;;;;;;6.20;44.82;96680.22;4976128;28;20254;-85
2022/01/29 10:49:24;;;;;;;2.90;1.20;;;;;;;6.20;45.18;96678.47;5003187;28;20767;-84
2022/01/29 10:52:00;;;;;;;1.23;1.00;;;;;;;6.23;45.54;96685.91;5005835;28;20904;-83
2022/01/29 10:54:28;;;;;;;5.03;1.40;;;;;;;6.21;44.74;96684.41;5000995;28;20210;-83
2022/01/29 10:57:01;;;;;;;1.10;0.97;;;;;;;6.27;44.70;96670.31;5009965;28;20215;-84
2022/01/29 10:59:29;;;;;;;1.87;1.10;;;;;;;6.31;44.75;96667.41;5003612;28;20191;-84
2022/01/29 11:01:58;;;;;;;1.83;1.00;;;;;;;6.32;43.96;96660.53;5009764;28;20222;-85
2022/01/29 11:04:29;;;;;;;5.50;0.80;;;;;;;6.43;43.85;96663.84;5004469;28;20222;-85
2022/01/29 11:07:01;;;;;;;0.80;0.80;;;;;;;6.46;43.54;96670.47;4998848;28;20227;-85
2022/01/29 11:09:30;;;;;;;0.93;0.83;;;;;;;6.40;43.32;96663.28;5011611;28;20196;-83
2022/01/29 11:11:58;;;;;;;1.20;1.10;;;;;;;6.45;43.08;96651.75;5003058;28;20200;-85
2022/01/29 11:14:26;;;;;;;1.27;1.17;;;;;;;6.47;43.54;96643.94;5004360;28;20221;-84
2022/01/29 11:16:54;;;;;;;0.80;0.80;;;;;;;6.50;42.84;96644.50;5007642;28;20218;-84
2022/01/29 11:19:23;;;;;;;1.00;0.90;;;;;;;6.57;43.29;96630.25;5018515;28;20203;-84
2022/01/29 11:21:53;;;;;;;1.17;0.90;;;;;;;6.58;42.95;96624.22;5021322;28;20218;-85
2022/01/29 11:24:25;;;;;;;0.93;0.93;;;;;;;6.57;42.14;96632.00;5015486;28;20211;-84
2022/01/29 11:26:53;;;;;;;2.57;2.13;;;;;;;6.64;42.51;96619.53;5014699;28;20230;-84
2022/01/29 11:29:30;;;;;;;1.20;0.90;;;;;;;6.67;42.63;96622.66;5012617;28;20200;-84
2022/01/29 11:32:27;;;;;;;1.20;1.10;;;;;;;6.74;42.50;96628.06;5018160;28;20203;-85
2022/01/29 11:35:01;;;;;;;0.90;0.90;;;;;;;6.80;41.96;96632.69;5018230;28;20223;-84
2022/01/29 11:37:38;;;;;;;0.80;0.80;;;;;;;6.88;42.11;96622.63;5015731;28;20709;-84
2022/01/29 11:40:17;;;;;;;2.10;1.03;;;;;;;7.05;42.07;96627.13;5010196;28;20202;-84
2022/01/29 11:43:24;;;;;;;1.00;1.00;;;;;;;7.28;42.21;96630.31;5004371;28;20609;-85
2022/01/29 11:45:54;;;;;;;1.07;1.00;;;;;;;7.29;41.67;96629.38;5006694;28;20288;-84
2022/01/29 11:48:52;;;;;;;3.83;1.20;;;;;;;7.31;41.41;96624.94;5012714;28;20231;-84
2022/01/29 11:51:44;;;;;;;1.30;1.20;;;;;;;7.32;41.63;96623.16;5007960;28;20212;-83
2022/01/29 11:54:15;;;;;;;2.10;0.90;;;;;;;7.28;41.41;96615.75;5013823;28;20198;-83
2022/01/29 11:56:45;;;;;;;3.43;1.60;;;;;;;7.41;42.10;96615.53;4991834;28;20305;-84
2022/01/29 11:59:25;;;;;;;1.87;1.20;;;;;;;7.56;41.92;96613.38;5002573;28;20202;-83